x

8452944 - Conimicut Light, Ri (cptr1) Weather Station

6:54 - Mon 21st Aug 2017 All times are EDT. -4 hours from GMT.

  • Wind
    14mph, 16mph gusts
  • Sea Temp 74°f
  • Air Temp 78°f
  • Sea Pressure 1019mb
  • 8452944 - Conimicut Light, Ri
  • 8452944 - Conimicut Light, Ri

More Historic Weather Station data

Upgrade to MSW Pro to gain access to the past 30 days of data for over 8000 Wavebouys and Weather Stations around the globe.

Join

Comparision Forecast

View Surf forecast
   
lun. 08/21 6:54 14 16 mph 1019mb 74f 78f
6:48 14 17 mph 1018.9mb - -
6:42 15 17 mph 1018.9mb 74f 78f
6:36 15 18 mph 1018.9mb 74f 79f
6:30 16 20 mph 1019mb 74f 78f
6:24 18 22 mph 1019mb 74f 79f
6:18 18 22 mph - - -
6:12 17 20 mph 1018.9mb 74f 79f
6:06 17 20 mph 1018.9mb 74f 79f
6:00 17 20 mph 1018.9mb 74f 79f
5:54 16 17 mph 1018.9mb 74f 79f
5:48 15 18 mph - - -
5:42 17 20 mph 1019mb 74f 79f
5:36 18 20 mph 1018.9mb 74f 78f
5:30 18 20 mph 1018.9mb 74f 78f
5:24 17 18 mph 1018.9mb 74f 78f
5:18 15 16 mph 1018.9mb 74f 79f
5:12 15 16 mph 1018.9mb 74f 78f
5:06 14 15 mph 1018.9mb 74f 78f
5:00 11 14 mph 1018.9mb 74f 79f
4:54 11 14 mph 1019.1mb 74f 81f
4:48 11 14 mph 1019.1mb 74f 81f
4:42 14 14 mph 1019.2mb 74f 80f
4:36 14 16 mph 1019.2mb 74f 80f
4:30 15 16 mph 1019.2mb 74f 80f
4:24 14 15 mph 1019.1mb 74f 78f
4:18 15 16 mph 1019mb 74f 77f
4:12 14 17 mph 1019mb 74f 78f
4:06 13 15 mph 1019mb 74f 78f
4:00 15 18 mph 1019.1mb 74f 80f
3:54 13 14 mph 1019mb 74f 78f
3:48 13 15 mph 1019mb 73f 77f
3:42 15 16 mph 1019mb 73f 77f
3:36 11 14 mph 1019.1mb 73f 77f
3:30 10 11 mph 1019.1mb 73f 77f
3:24 10 13 mph 1019mb 73f 77f
3:18 13 14 mph 1019mb 73f 78f
3:12 13 14 mph 1019.1mb 73f 78f
3:06 14 14 mph 1019mb 73f 78f
3:00 11 11 mph 1018.9mb 73f 78f
2:54 10 11 mph 1019mb 73f 78f
2:48 7 8 mph 1019.2mb 73f 81f
2:42 6 7 mph 1019.2mb 73f 82f
2:36 6 10 mph 1019.3mb 73f 82f
2:30 8 10 mph 1019.4mb 73f 82f
2:24 9 11 mph 1019.5mb 73f 82f
2:18 11 14 mph 1019.6mb 73f 82f
2:12 5 10 mph 1019.6mb 74f 80f
2:06 6 11 mph 1019.7mb 74f 80f
2:00 9 13 mph 1019.7mb 74f 82f
1:54 9 11 mph 1019.8mb 74f 81f
1:48 8 11 mph 1019.9mb 74f 80f
1:42 9 13 mph 1020mb 74f 80f
1:36 9 11 mph 1020.1mb 75f 80f
1:30 9 13 mph 1020.1mb 75f -
1:24 11 14 mph 1020.2mb 75f 81f
1:18 11 14 mph 1020.2mb 75f 80f
1:12 11 13 mph 1020.3mb 75f 80f
1:06 7 13 mph 1020.4mb 74f 80f
1:00 9 11 mph 1020.4mb 74f 79f
12:54 11 13 mph 1020.5mb 74f 79f
12:48 10 14 mph 1020.6mb 74f 78f
12:42 10 13 mph 1020.6mb 74f 78f
12:36 10 11 mph 1020.7mb 74f 78f
12:30 10 13 mph 1020.8mb 74f 77f
12:24 9 11 mph 1020.9mb 74f 77f
12:18 9 10 mph 1021mb 74f 76f
12:12 7 8 mph 1020.9mb 74f 76f
12:06 8 9 mph 1020.9mb 74f 76f
12:00 8 9 mph 1021mb 74f 75f
11:54 7 7 mph 1021mb 74f 74f
11:48 7 8 mph 1021mb 73f 74f
11:42 7 8 mph 1021.1mb 73f 74f
11:36 8 8 mph 1021.1mb 73f 74f
11:30 8 9 mph 1021.1mb 73f 74f
11:24 8 8 mph 1021.1mb 73f 74f
11:18 8 8 mph 1021.1mb 73f 74f
11:12 7 7 mph 1021.1mb 73f 74f
11:06 7 7 mph 1021.2mb 73f 74f
11:00 5 7 mph 1021.2mb 73f 74f
10:54 6 7 mph 1021.2mb 73f 74f
10:48 6 7 mph 1021.1mb 73f 73f
10:42 6 7 mph 1021.2mb 73f 73f
10:36 6 7 mph 1021.3mb 73f 73f
10:30 6 6 mph 1021.3mb 73f 73f
10:24 6 7 mph 1021.3mb 73f 73f
10:18 6 7 mph 1021.2mb 73f 72f
10:12 6 6 mph 1021.2mb 73f 73f
10:06 6 6 mph 1021.2mb 73f 72f
10:00 5 6 mph 1021.3mb 73f 72f
9:54 5 5 mph 1021.3mb 73f 72f
9:48 3 5 mph 1021.4mb 73f 72f
9:42 3 5 mph 1021.4mb 73f 72f
9:36 5 5 mph 1021.3mb 73f 72f
9:30 5 5 mph 1021.4mb 73f 71f
9:24 3 5 mph 1021.4mb 73f 71f
9:18 5 5 mph 1021.4mb 74f 71f
9:12 3 5 mph 1021.5mb 74f 71f
9:06 3 3 mph 1021.5mb 73f 71f
9:00 1 2 mph 1021.5mb 73f 71f
8:54 1 2 mph 1021.5mb 73f 70f
8:48  -  1 mph 1021.6mb 73f 70f
8:42  -  1 mph 1021.6mb 73f 70f
8:36  -  1 mph 1021.5mb 73f 70f
8:30  -  1 mph 1021.6mb 73f 71f
8:24  -  0 mph 1021.6mb 73f 70f
8:18  -  1 mph 1021.6mb 73f 70f
8:12  -  1 mph 1021.5mb 73f 70f
8:06  -  1 mph 1021.6mb 73f 69f
8:00  -  2 mph 1021.5mb 73f 69f
7:54  -  1 mph 1021.6mb 73f 69f
7:48  -  1 mph 1021.6mb 73f 69f
7:42  -  1 mph 1021.6mb 73f 69f
7:36  -  1 mph 1021.6mb 73f 68f
7:30 1 2 mph 1021.5mb 73f 68f
7:24 2 2 mph 1021.5mb 73f 68f
7:18 2 3 mph 1021.5mb 73f 68f
7:12 3 3 mph 1021.5mb 73f 68f
7:06 2 2 mph 1021.4mb 73f 68f
7:00 2 2 mph 1021.4mb 73f 68f
6:54 1 2 mph 1021.3mb 73f 68f
6:48 1 2 mph 1021.3mb 73f 69f
6:42  -  3 mph 1021.2mb 73f 69f
6:36 3 6 mph 1021.2mb 73f 69f
6:30 2 5 mph 1021.3mb 73f 69f
6:24 3 5 mph 1021.3mb 73f 69f
6:18 2 5 mph 1021.2mb 73f 68f
6:12 3 3 mph 1021.2mb 73f 68f
6:06 3 5 mph 1021.2mb 73f 68f
6:00 5 6 mph 1021.1mb 73f 68f
5:54 6 7 mph 1021.1mb 73f 67f
5:48 6 7 mph 1021mb 73f 67f
5:42 6 8 mph 1021.1mb 73f 67f
5:36 7 8 mph 1021mb 73f 68f
5:30 7 8 mph 1020.9mb 73f 67f
5:24 7 8 mph 1020.9mb 73f 67f
5:18 7 9 mph 1020.8mb 73f 67f
5:12 7 10 mph 1020.8mb 74f 68f
5:06 8 10 mph 1020.7mb 74f 68f
5:00 8 9 mph 1020.7mb 74f 68f
4:54 7 10 mph 1020.6mb 74f 68f
4:48 8 9 mph 1020.6mb 74f 68f
4:42 5 7 mph 1020.6mb 74f 67f
4:36 5 6 mph 1020.6mb 74f 67f
4:30 5 8 mph 1020.6mb 74f 68f
4:24 7 9 mph 1020.6mb 74f 68f
4:18 6 8 mph 1020.5mb 74f 68f
4:12 7 8 mph 1020.5mb 74f 68f
4:06 6 8 mph 1020.5mb 74f 69f
4:00 6 8 mph 1020.4mb 74f 69f
3:54 6 7 mph 1020.4mb 74f 69f
3:48 6 9 mph 1020.5mb 74f 68f
3:42 7 8 mph 1020.5mb 74f 68f
3:36 5 6 mph 1020.5mb 74f 68f
3:30 6 6 mph 1020.4mb 74f 68f
3:24 5 7 mph 1020.4mb 74f 68f
3:18 7 8 mph 1020.3mb 74f 69f
3:12 8 9 mph 1020.2mb 74f 69f
3:06 6 7 mph 1020.2mb 74f 69f
3:00 6 7 mph 1020.2mb 74f 69f
2:54 6 8 mph 1020.1mb 74f 69f
2:48 8 9 mph 1020.2mb 74f 69f
2:42 8 9 mph 1020.1mb - -
2:36 8 9 mph 1020.1mb - -
2:30 7 9 mph 1020.1mb 74f 69f
2:24 7 8 mph 1020mb 74f 69f
2:18 6 7 mph 1020.1mb 74f 69f
2:12 6 7 mph 1020.1mb 74f 69f
2:06 6 7 mph 1020.1mb 74f 69f
2:00 6 7 mph 1020.2mb 74f 69f
1:54 6 8 mph 1020.2mb 74f 69f
1:48 6 7 mph 1020.2mb 75f 69f
1:42 6 7 mph 1020.2mb - -
1:36 7 8 mph 1020.2mb - -
1:30 7 9 mph 1020.2mb 75f 69f
1:24 8 9 mph 1020.2mb 75f 69f
1:18 8 9 mph 1020.1mb 75f 70f
1:12 7 8 mph 1020.1mb 75f 70f
1:06 6 7 mph 1020.1mb 75f 70f
1:00 6 7 mph 1020.2mb 75f 70f
12:54 5 8 mph 1020.2mb 75f 70f
12:48 6 8 mph 1020.2mb 75f 70f
12:42 6 7 mph 1020.1mb 75f 70f
12:36 6 7 mph 1020.1mb 75f 70f
12:30 6 7 mph 1020.1mb 75f 70f
12:24 6 8 mph 1020.1mb 75f 70f
12:18 7 7 mph 1020mb 75f 71f
12:12 7 8 mph 1019.9mb 75f 71f
12:06 7 7 mph 1019.9mb 75f 71f
12:00 7 8 mph 1019.8mb 75f 71f
dim. 08/20 11:54 7 7 mph 1019.7mb 75f 71f
11:48 6 7 mph 1019.7mb 75f 71f
11:42 6 7 mph 1019.7mb 75f 71f
11:36 5 7 mph 1019.6mb 75f 71f
11:30 6 7 mph 1019.5mb 75f 72f
11:24 5 7 mph 1019.5mb 75f 71f
11:18 8 10 mph 1019.4mb 75f 72f
11:12 7 7 mph 1019.4mb 75f 71f
11:06 7 8 mph 1019.4mb 75f 72f
11:00 6 7 mph 1019.3mb 75f 73f
10:54 6 8 mph 1019.3mb 75f 73f
10:48 6 7 mph 1019.2mb 75f 73f
10:42 5 6 mph 1019.2mb 75f 73f
10:36 5 6 mph 1019.2mb 75f 73f
10:30 5 6 mph 1019.1mb 75f 74f
10:24 5 7 mph 1019mb 75f 74f
10:18 7 8 mph - - -
10:12 7 7 mph 1018.8mb 75f 74f
10:06 6 6 mph 1018.8mb 75f 74f
10:00 6 7 mph 1018.8mb 75f 74f
9:54 7 7 mph 1018.7mb 75f 74f
9:48 6 7 mph 1018.7mb 75f 74f
9:42 5 6 mph 1018.7mb 75f 74f
9:36 3 3 mph 1018.6mb 75f 74f
9:30 2 5 mph 1018.6mb 75f 74f
9:24 5 7 mph 1018.5mb 75f 74f
9:18 6 7 mph - - -
9:12 6 7 mph 1018.3mb 75f 74f
9:06 6 8 mph 1018.3mb 75f 75f
9:00 7 9 mph 1018.2mb 75f 76f
8:54 8 9 mph 1018.1mb 75f 76f
8:48 7 8 mph - - -
8:42 8 9 mph 1018mb 75f 76f
8:36 9 9 mph 1017.8mb 75f 76f
8:30 8 9 mph 1017.8mb 75f 77f
8:24 9 10 mph 1017.7mb 75f 77f
8:18 10 10 mph - - -
8:12 10 11 mph 1017.4mb 75f 77f
8:06 10 11 mph 1017.3mb 75f 77f
8:00 10 11 mph 1017.2mb 75f 78f
7:30 9 10 mph 1016.7mb 74f 78f
7:24 9 11 mph 1016.8mb 74f 78f
7:18 10 11 mph - - -
7:12 10 13 mph 1016.7mb 74f 79f
7:06 13 14 mph 1016.6mb 74f 79f
7:00 14 15 mph 1016.5mb 74f 80f
6:54 13 15 mph 1016.4mb 74f 80f
6:48 11 15 mph - - -
6:42 13 15 mph 1016.2mb 74f 80f
6:36 11 15 mph 1016.1mb 74f 79f
6:30 14 17 mph 1016.1mb 75f 80f
6:24 15 20 mph 1016mb 75f 80f
6:18 17 18 mph - - -
6:12 14 16 mph 1015.8mb 75f 80f
6:06 14 15 mph 1015.8mb 75f 80f
6:00 14 18 mph 1015.8mb 75f 80f
5:54 16 20 mph 1015.7mb 75f 80f
5:48 13 15 mph 1015.6mb - -
5:42 14 21 mph 1015.5mb 75f 80f
5:36 14 18 mph 1015.5mb 75f 80f
5:30 14 18 mph 1015.5mb 75f 80f
5:24 16 20 mph 1015.5mb 75f 80f
5:18 16 20 mph 1015.5mb 75f 80f
5:12 15 22 mph 1015.5mb 74f 80f
5:06 16 18 mph 1015.5mb 74f 80f
5:00 16 17 mph 1015.5mb 74f 80f
4:54 15 20 mph 1015.4mb 74f 80f
4:48 17 21 mph 1015.4mb 74f 80f
4:42 13 17 mph 1015.4mb 74f 80f
4:36 14 17 mph 1015.4mb 74f 80f
4:30 16 18 mph 1015.4mb 74f 80f
4:24 15 18 mph 1015.4mb 74f 79f
4:18 16 18 mph 1015.4mb 74f 79f
4:12 16 20 mph 1015.3mb 74f 80f
4:06 20 22 mph 1015.3mb 74f 79f
4:00 14 16 mph 1015.2mb 74f 80f
3:54 15 18 mph 1015.3mb 74f 79f
3:48 14 17 mph 1015.2mb 74f 80f
3:42 15 18 mph 1015.2mb 74f 79f
3:36 14 17 mph 1015.1mb 75f 79f
3:30 16 20 mph 1015.2mb 76f 79f
3:24 13 16 mph 1015.3mb 76f 79f
3:18 14 16 mph 1015.2mb 76f 79f
3:12 15 20 mph 1015.3mb 76f 79f
3:06 14 17 mph 1015.3mb 76f 78f
3:00 15 17 mph 1015.2mb 76f 79f
2:54 16 18 mph 1015.1mb 76f 78f
2:48 16 20 mph 1015.1mb 76f 79f
2:42 15 21 mph 1015.1mb 76f 79f
2:36 16 21 mph 1015.2mb 76f 79f
2:30 17 20 mph 1015.3mb 76f 79f
2:24 16 21 mph 1015.1mb 75f 79f
2:18 10 14 mph 1015.1mb 73f 79f
2:12 14 16 mph 1015.2mb 73f 79f
2:06 14 18 mph 1015.1mb 73f 79f
2:00 14 18 mph 1015.1mb 73f 79f
1:54 15 17 mph 1015.1mb 72f 79f
1:48 14 20 mph 1015.1mb 73f 78f
1:42 16 18 mph 1015mb 73f 78f
1:36 13 15 mph 1015.1mb 73f 78f
1:30 14 15 mph 1015.1mb 73f 78f
1:24 15 17 mph 1015mb 74f 78f
1:18 15 18 mph 1015mb 74f 78f
1:12 11 16 mph 1014.9mb 74f 79f
1:06 14 20 mph 1014.9mb 74f 78f
1:00 15 17 mph 1014.8mb 74f -
12:54 10 15 mph 1014.7mb 75f 78f
12:48 15 20 mph 1014.6mb 75f 78f
12:42 10 14 mph 1014.6mb 75f 78f
12:36 13 16 mph 1014.6mb 75f 78f
12:30 13 17 mph 1014.6mb 75f 78f
12:24 16 18 mph 1014.5mb 75f 78f
12:18 11 17 mph 1014.6mb 75f 78f
12:12 15 20 mph 1014.6mb 75f 78f
12:06 11 16 mph 1014.6mb 75f 78f
12:00 11 14 mph 1014.6mb 75f 77f
11:54 10 16 mph 1014.6mb 75f 77f
11:48 14 16 mph 1014.5mb 75f 77f
11:42 15 17 mph 1014.4mb 75f 77f
11:36 15 17 mph 1014.5mb 75f 77f
11:30 13 15 mph 1014.4mb 75f 76f
11:24 14 16 mph 1014.4mb 75f 76f
11:18 13 16 mph 1014.4mb 75f 76f
11:12 10 11 mph 1014.4mb 75f 76f
11:06 13 16 mph 1014.5mb 75f 76f
11:00 13 17 mph 1014.4mb 75f -
10:54 16 20 mph 1014.3mb 75f 75f
10:48 16 17 mph 1014.3mb 75f 75f
10:42 17 20 mph 1014.3mb 74f 75f
10:36 16 18 mph 1014.3mb 74f 75f
10:30 14 16 mph 1014.3mb 74f 75f
10:24 14 17 mph 1014.2mb 74f 75f
10:18 14 17 mph 1014.2mb 74f 74f
10:12 14 17 mph 1014.2mb 74f 74f
10:06 16 18 mph 1014.1mb 74f 74f
10:00 14 16 mph 1014.1mb 74f 74f
9:54 13 17 mph 1014.1mb 74f 74f
9:48 17 21 mph 1014mb 74f 74f
9:42 18 20 mph 1014mb 74f 74f
9:36 17 21 mph 1013.9mb 74f 74f
9:30 14 16 mph 1014mb 74f 74f
9:24 16 18 mph 1014mb 74f 73f
9:18 16 21 mph 1014mb 74f 73f
9:12 17 20 mph 1013.9mb 74f 73f
9:06 18 21 mph 1013.9mb 74f 73f
9:00 14 17 mph 1013.9mb 74f 73f
8:54 14 18 mph 1013.9mb 74f 73f
8:48 17 21 mph 1013.8mb 74f 73f
8:42 14 17 mph 1013.8mb 74f 73f
8:36 15 20 mph 1013.8mb 74f 73f
8:30 17 20 mph 1013.8mb 74f 73f
8:24 16 18 mph 1013.8mb 74f 73f
8:18 16 18 mph 1013.8mb 74f 73f
8:12 15 22 mph 1013.8mb 74f 72f
8:06 16 21 mph 1013.7mb 74f 72f
8:00 15 22 mph 1013.7mb 74f 72f
7:54 14 18 mph 1013.6mb 74f 72f
7:48 15 22 mph 1013.6mb 74f 72f
7:42 15 18 mph 1013.5mb 74f 72f
7:36 10 14 mph 1013.4mb 74f 72f
7:30 8 9 mph 1013.3mb 74f 71f
7:24 7 8 mph 1013.2mb 74f 71f
7:18 7 9 mph 1013.1mb 74f 71f
7:12 7 9 mph 1013mb 74f 71f
7:06 7 8 mph 1012.9mb 74f 71f
7:00 7 8 mph 1012.9mb 73f 71f
6:54 7 7 mph 1012.8mb 73f 71f
6:48 7 8 mph 1012.8mb 73f 71f
6:42 6 9 mph 1012.6mb 73f 71f
6:36 8 10 mph 1012.5mb 73f 72f
6:30 9 10 mph 1012.4mb 73f 72f
6:24 8 10 mph 1012.3mb 73f 72f
6:18 9 10 mph 1012.3mb 73f 72f
6:12 9 11 mph 1012.2mb 73f 72f
6:06 10 11 mph 1012.2mb 73f 72f
6:00 11 14 mph 1012.1mb 73f 72f
5:54 13 14 mph 1012.1mb 73f 72f
5:48 13 14 mph 1012mb 74f 72f
5:42 13 14 mph 1011.9mb 74f 72f
5:36 11 13 mph 1011.9mb 74f 72f
5:30 10 13 mph 1011.8mb 74f 72f
5:24 9 11 mph 1011.6mb 74f 71f
5:18 10 13 mph 1011.5mb 74f 71f
5:12 9 13 mph 1011.4mb 74f 71f
5:06 9 13 mph 1011.4mb 75f 71f
5:00 10 11 mph 1011.3mb 75f 71f
4:54 10 11 mph 1011.3mb 75f 71f
4:48 8 10 mph 1011.2mb 75f 72f
4:42 9 11 mph 1011.2mb 75f 72f
4:36 8 9 mph 1011.2mb 75f 72f
4:30 7 10 mph 1011.1mb 75f 72f
4:24 8 9 mph 1011.1mb 75f 72f
4:18 8 10 mph 1011mb 75f 72f
4:12 9 11 mph 1010.9mb 75f 72f
4:06 10 13 mph 1010.9mb 75f 73f
4:00 10 13 mph 1010.8mb 75f 73f
3:54 9 11 mph 1010.8mb 75f 72f
3:48 9 10 mph 1010.8mb 75f 72f
3:42 6 6 mph 1010.8mb 75f 72f
3:36 2 5 mph 1010.7mb 75f 72f
3:30 3 5 mph 1010.6mb 75f 72f
3:24 3 6 mph 1010.5mb 75f 73f
3:18 2 5 mph 1010.5mb 75f 73f
3:12 2 3 mph 1010.6mb 75f 72f
3:06  -  1 mph 1010.5mb 75f 73f
3:00 1 2 mph 1010.5mb 75f 73f
2:54 2 3 mph 1010.5mb 75f 73f
2:48 3 5 mph 1010.5mb 75f 73f
2:42 2 5 mph 1010.6mb 75f -
2:36 2 3 mph 1010.6mb 75f -
2:30 2 2 mph 1010.7mb 75f 74f
2:24 1 2 mph 1010.7mb 75f 74f
2:18 2 3 mph 1010.7mb 75f 74f
2:12 2 3 mph 1010.8mb 75f 74f
2:06  -  2 mph 1010.8mb 75f 73f
2:00 2 3 mph 1010.8mb 75f 73f
1:54 3 6 mph 1010.8mb 75f 74f
1:48 5 6 mph 1010.7mb 75f 74f
1:12 3 6 mph 1011.1mb 75f 74f
1:06  -  2 mph 1011.1mb 75f 74f
1:00 2 5 mph 1011.1mb 75f 74f
12:54 5 6 mph 1011.1mb 75f 75f
12:48 5 7 mph 1011.1mb 75f 75f
12:42 5 6 mph 1011.1mb 75f 75f
12:36 3 5 mph 1011.1mb 75f 74f
12:30  -  3 mph 1011.2mb 75f -
12:24 5 6 mph 1011.2mb 75f 74f
12:18 6 7 mph 1011.2mb 75f 74f
12:12 6 8 mph 1011.2mb 75f 74f
12:06 8 8 mph 1011.2mb 75f 74f
12:00 6 7 mph 1011.2mb 75f 74f
sam. 08/19 11:54 6 6 mph 1011.2mb 75f 74f
11:48 6 6 mph 1011.1mb 75f 74f
11:42 6 7 mph 1011.1mb 75f 74f
11:36 6 7 mph 1011mb 75f 74f
11:30 7 7 mph 1011.1mb 75f 74f
11:24 7 7 mph 1011.2mb 75f 74f
11:18 7 8 mph 1011.1mb 75f 74f
11:12 7 8 mph 1011mb 75f 74f
11:06 8 10 mph 1010.9mb 75f 75f
11:00 9 11 mph 1010.9mb 75f 75f
10:54 9 11 mph 1010.9mb 75f 75f
10:48 10 13 mph 1010.9mb 75f 75f
10:42 10 13 mph 1010.9mb 75f 75f
10:36 10 13 mph 1010.9mb 75f 75f
10:30 11 14 mph 1010.9mb 75f 75f
10:24 13 16 mph 1010.8mb 75f 76f
10:18 11 14 mph - - -
10:12 11 13 mph 1010.7mb 75f 75f
10:06 13 14 mph 1010.7mb 75f 75f
10:00 13 15 mph 1010.6mb 75f 75f
9:54 13 14 mph 1010.5mb 75f 75f
9:48 13 14 mph - - -
9:42 13 15 mph 1010.2mb 75f 75f
9:36 14 15 mph 1010.2mb 75f 76f
9:30 14 17 mph 1010.2mb 75f 76f
9:24 14 14 mph 1010.2mb 75f 76f
9:18 13 14 mph - - -
9:12 13 14 mph 1010mb 75f 76f
9:06 13 14 mph 1010mb 75f 76f
9:00 11 14 mph 1009.9mb 75f 77f
8:54 13 15 mph 1009.9mb 75f 77f
8:48 14 15 mph 1010mb - -
8:42 14 15 mph 1009.9mb 75f 77f
8:36 14 15 mph 1009.8mb 75f 78f
8:30 11 14 mph 1009.6mb 75f 78f
8:24 13 14 mph 1009.6mb 75f 78f
8:18 14 15 mph - - -
8:12 14 15 mph 1009.5mb 75f 78f
8:06 13 15 mph 1009.5mb 75f 78f
8:00 13 15 mph 1009.4mb 75f 78f
7:54 13 15 mph 1009.4mb 75f 78f
7:48 11 13 mph 1009.3mb - -
7:42 11 13 mph 1009.3mb 75f 78f
7:36 13 14 mph 1009.2mb 75f 79f
7:30 13 13 mph 1009.2mb 76f 79f
7:24 11 11 mph 1009.1mb 76f 79f
7:18 11 13 mph - - -
7:12 13 14 mph 1008.9mb 76f 79f
7:06 11 11 mph 1008.8mb 76f 79f
7:00 10 11 mph 1008.7mb 76f 81f
6:54 9 11 mph 1008.6mb 75f 81f
6:48 10 11 mph 1008.6mb - -
6:42 10 11 mph 1008.6mb 73f 81f
6:36 9 13 mph 1008.7mb 73f 82f
6:30 11 14 mph 1008.6mb 73f 82f
6:24 11 15 mph 1008.5mb 74f 82f
6:18 13 16 mph - - -
6:12 14 17 mph 1008.5mb 74f 83f
6:06 14 18 mph 1008.5mb 74f 83f
6:00 11 16 mph 1008.6mb 75f 83f
5:54 11 15 mph 1008.6mb 75f 82f
5:48 14 16 mph 1008.7mb - -
5:42 14 18 mph 1008.6mb 75f 83f
5:36 16 18 mph 1008.6mb 74f 83f
5:30 15 16 mph 1008.6mb 74f 83f
5:24 16 21 mph 1008.6mb 74f 83f
5:18 17 21 mph 1008.6mb 74f 83f
5:12 18 21 mph 1008.6mb 74f 83f
5:06 15 21 mph 1008.5mb 74f 84f
5:00 14 18 mph 1008.5mb 74f 83f
4:54 15 18 mph 1008.5mb 74f 83f
4:48 16 18 mph 1008.5mb 74f 84f
4:42 17 21 mph 1008.4mb 74f 84f
4:36 16 20 mph 1008.3mb 74f 84f
4:30 13 17 mph 1008.3mb 74f 84f
4:24 14 16 mph 1008.4mb 74f 83f
4:18 15 20 mph 1008.4mb 74f 83f
4:12 17 22 mph 1008.4mb 74f 84f
4:06 17 21 mph 1008.4mb 74f 84f
4:00 15 20 mph 1008.4mb 74f 85f
3:54 17 20 mph 1008.3mb 74f 85f
3:48 17 20 mph 1008.3mb 75f 85f
3:42 14 17 mph 1008.3mb 75f 85f
3:36 14 17 mph 1008.4mb 75f 85f
3:30 15 17 mph 1008.4mb 75f 85f
3:24 15 18 mph 1008.3mb 75f 85f
3:18 15 18 mph 1008.4mb 75f 85f
3:12 15 20 mph 1008.4mb 75f 85f
3:06 16 20 mph 1008.3mb 75f 85f
3:00 16 20 mph 1008.3mb 75f 85f
2:54 16 22 mph 1008.4mb 75f 85f
2:48 16 20 mph 1008.4mb 75f 84f
2:42 11 14 mph 1008.4mb 75f 80f
2:36 11 15 mph 1008.4mb 75f 81f
2:30 15 16 mph 1008.4mb 75f -
2:24 13 16 mph 1008.4mb 75f 78f
2:18 15 16 mph 1008.4mb 75f 79f
2:12 14 15 mph 1008.4mb 75f 79f
2:06 14 15 mph 1008.5mb 75f 79f
2:00 14 15 mph 1008.5mb 74f 78f
1:54 13 14 mph 1008.5mb 74f 78f
1:48 14 15 mph 1008.6mb 74f 78f
1:42 11 15 mph 1008.7mb 74f 77f
1:36 15 15 mph 1008.6mb 74f 78f
1:30 10 11 mph 1008.7mb 74f 78f
1:24 13 15 mph 1008.7mb 73f 78f
1:18 13 14 mph 1008.8mb 73f 78f
1:12 13 14 mph 1008.8mb 73f 78f
1:06 13 14 mph 1008.8mb 73f 78f
1:00 13 14 mph 1008.8mb 74f 78f
12:54 13 14 mph 1008.9mb 74f 78f
12:48 11 13 mph 1009mb 74f 78f
12:42 11 13 mph 1009mb 74f 78f
12:36 11 11 mph 1009.1mb 74f 77f
12:30 9 10 mph 1009.1mb 74f 78f
12:24 9 9 mph 1009.2mb 74f 78f
12:18 9 9 mph 1009.3mb 74f 78f
12:12 9 9 mph 1009.3mb 74f 78f
12:06 8 10 mph 1009.3mb 74f 78f
12:00 9 10 mph 1009.3mb 75f 77f
11:54 9 9 mph 1009.3mb 75f 77f
11:48 8 9 mph 1009.3mb 75f 77f
11:42 9 9 mph 1009.3mb 74f 77f
11:36 8 9 mph 1009.2mb 74f 77f
11:30 9 9 mph 1009.2mb 74f 76f
11:24 7 7 mph 1009.2mb 74f 76f
11:18 5 8 mph 1009.3mb 74f 77f
11:12 6 7 mph 1009.3mb 74f 78f
11:06 1 2 mph 1009.3mb 74f 80f
11:00 3 5 mph 1009.3mb 74f 79f
10:54 2 2 mph 1009.3mb 74f 80f
10:48 2 2 mph 1009.4mb 74f 82f
10:42 1 1 mph 1009.4mb 74f 82f
10:36 1 2 mph 1009.4mb 74f 81f
10:30  -  2 mph 1009.4mb 74f 81f
10:24 2 5 mph 1009.5mb 74f 80f
10:18 5 5 mph 1009.4mb 74f 80f
10:12 2 3 mph 1009.4mb 74f 80f
10:06 3 5 mph 1009.4mb 74f 79f
10:00 5 6 mph 1009.4mb 74f 79f
9:54 3 6 mph 1009.3mb 74f 78f
9:48 6 7 mph 1009.2mb 74f 77f
9:42 7 7 mph 1009.2mb 73f 77f
9:36 6 7 mph 1009.1mb 73f 77f
9:30 5 6 mph 1009.1mb 73f 76f
9:24 3 5 mph 1009.1mb 73f 76f
9:18  -  1 mph 1009.1mb 73f 75f
9:12  -  3 mph 1009.1mb 73f 74f
9:06 2 3 mph 1009mb 73f 74f
9:00 2 3 mph 1009mb 73f 74f
8:54 2 3 mph 1008.9mb 73f 74f
8:48 2 2 mph 1008.9mb 73f 74f
8:42  -  2 mph 1009mb 73f 74f
8:36 2 3 mph 1009mb 73f 75f
8:30 3 6 mph 1009mb 73f 75f
8:24 6 7 mph 1008.9mb 73f 74f
8:18 6 7 mph 1008.9mb 73f 74f
8:12 6 7 mph 1008.8mb 73f 74f
8:06 6 6 mph 1008.7mb 73f 73f
8:00 3 5 mph 1008.6mb 73f 73f
7:54 5 5 mph 1008.5mb 73f 73f
7:48 5 5 mph 1008.4mb 73f 73f
7:42 3 5 mph 1008.4mb 73f 73f
7:36 5 5 mph 1008.3mb 73f 73f
7:30 3 5 mph 1008.2mb 73f 73f
7:24 3 5 mph 1008.1mb 73f 73f
7:18 3 5 mph 1008.2mb 73f 73f
7:12 3 5 mph 1008.2mb 73f 72f
7:06 2 3 mph 1008.1mb 73f 72f
7:00 2 3 mph 1008.1mb 72f 72f
6:54 3 3 mph 1008.1mb 72f 72f
6:48 2 5 mph 1008.1mb 72f 72f
6:42 3 3 mph 1008.1mb 72f 72f
6:36 3 6 mph 1008mb 72f 72f
6:30 6 8 mph 1007.9mb 72f 72f
6:24 7 8 mph 1007.8mb 72f 72f
6:18 7 7 mph 1007.8mb 72f 72f
6:12 7 8 mph 1007.7mb 72f 72f
6:06 8 8 mph 1007.7mb 72f 72f
6:00 8 8 mph 1007.8mb 72f 72f
5:54 7 7 mph 1007.7mb 72f 72f
5:48 6 6 mph 1007.7mb 72f 72f
5:42 6 7 mph 1007.6mb 72f 72f
5:36 7 8 mph 1007.5mb 72f 72f
5:30 8 8 mph 1007.6mb 72f 72f
5:24 8 9 mph 1007.6mb 72f 72f
5:18 9 9 mph 1007.6mb 72f 72f
5:12 8 9 mph 1007.5mb 72f 72f
5:06 9 9 mph 1007.4mb 72f 72f
5:00 9 9 mph 1007.5mb 72f 72f
4:54 7 8 mph 1007.5mb 72f 72f
4:48 7 7 mph 1007.3mb 72f 72f
4:42 7 9 mph 1007.2mb 72f 72f
4:36 9 10 mph 1007.2mb 73f 72f
4:30 10 10 mph 1007.3mb 73f 72f
4:24 8 9 mph 1007.2mb 73f 73f
4:18 6 7 mph 1007.1mb 73f 73f
4:12 5 6 mph 1007.2mb 73f 73f
4:06 6 8 mph 1007.2mb 73f 73f
4:00 8 8 mph 1007.1mb 73f 73f
3:54 7 8 mph 1007.1mb 73f 73f
3:48 7 8 mph 1007mb 73f 73f
3:42 7 9 mph 1006.9mb 73f 73f
3:36 8 9 mph 1006.8mb 73f 73f
3:30 10 13 mph 1006.8mb 73f 73f
3:24 11 13 mph 1006.9mb 73f 73f
3:18 11 11 mph 1007mb 73f 73f
3:12 9 10 mph 1007mb 73f 73f
3:06 10 11 mph 1007.1mb 73f 73f
3:00 9 10 mph 1007.1mb 73f 73f
2:54 10 11 mph 1007.2mb 73f 73f
2:48 10 11 mph 1007.2mb 73f 73f
2:42 11 11 mph 1007.3mb 73f -
2:36 10 10 mph 1007.2mb 73f -
2:30 10 10 mph 1007.3mb 73f 73f
2:24 8 8 mph 1007.3mb 73f 74f
2:18 7 8 mph 1007.3mb 73f 74f
2:12 7 8 mph 1007.4mb 73f 74f
2:06 7 8 mph 1007.4mb 73f 74f
2:00 7 9 mph 1007.4mb 73f 74f
1:54 9 11 mph 1007.5mb 73f 74f
1:48 10 13 mph 1007.6mb 73f 74f
1:42 10 14 mph 1007.7mb 73f 74f
1:36 13 15 mph 1007.8mb 73f 74f
1:30 10 14 mph 1007.9mb 73f 74f
1:24 11 15 mph 1008mb 73f 74f
1:18 13 15 mph 1008.1mb 73f 74f
1:12 15 20 mph 1008.2mb 73f 74f
1:06 14 17 mph 1008.2mb 72f 74f
1:00 14 17 mph 1008.2mb 72f 74f
12:54 15 17 mph 1008.3mb 72f 74f
12:48 14 16 mph 1008.3mb 72f 74f
12:42 15 18 mph 1008.3mb 72f 74f
12:36 16 18 mph 1008.4mb 72f 74f
12:30 16 17 mph 1008.5mb 72f 74f
12:24 15 17 mph 1008.6mb 72f 74f
12:18 15 20 mph 1008.5mb 72f 74f
12:12 16 22 mph 1008.7mb 72f 74f
12:06 16 22 mph 1008.8mb 72f 75f
12:00 16 20 mph 1008.8mb 72f 74f
ven. 08/18 11:54 15 17 mph 1008.9mb 72f 75f
11:48 16 20 mph 1009mb - -
11:42 15 18 mph 1009.2mb 72f 73f
11:36 18 22 mph 1009.4mb 72f 73f
11:30 18 23 mph 1009.4mb 72f 74f
11:24 17 21 mph 1009.5mb 72f 74f
11:18 17 20 mph 1009.5mb 72f 73f
11:12 15 18 mph 1009.4mb 72f 73f
11:06 18 20 mph 1009.3mb 72f 73f
11:00 17 21 mph 1009.3mb 72f 73f
10:54 20 21 mph 1009.2mb 72f 72f
10:48 21 22 mph - - -
10:42 18 21 mph 1009.2mb 72f 72f
10:36 20 22 mph 1009.2mb 72f 72f
10:30 20 22 mph 1009.2mb 72f 73f
10:24 22 24 mph 1009.3mb 72f 73f
10:18 22 24 mph 1009.3mb 72f 73f
10:12 21 22 mph 1009.5mb 72f 72f
10:06 16 20 mph 1009.6mb 72f 73f
10:00 17 20 mph 1009.7mb 72f 73f
9:54 18 21 mph 1009.7mb 72f 73f
9:48 18 22 mph 1009.6mb - -
9:42 21 22 mph 1009.4mb 72f 73f
9:36 18 20 mph 1009.4mb 72f 73f
9:30 17 21 mph 1009.6mb 72f 73f
9:24 17 21 mph 1009.6mb 72f 73f
9:18 18 21 mph 1009.8mb 72f 72f
9:12 18 23 mph 1009.7mb 72f 72f
9:06 21 23 mph 1009.6mb 72f 72f
9:00 21 23 mph 1009.7mb 72f 73f
8:54 21 23 mph 1009.7mb 72f 73f
8:48 22 24 mph - - -
8:42 22 24 mph 1009.8mb 72f 73f
8:36 23 25 mph 1009.8mb 72f 73f
8:30 22 24 mph 1009.7mb 72f 73f
8:24 22 24 mph 1009.7mb 72f 73f
8:18 23 25 mph - - -
8:12 20 23 mph 1009.6mb 72f 72f
8:06 21 23 mph 1009.6mb 72f 72f
8:00 20 22 mph 1009.6mb 72f 72f
7:54 18 21 mph 1009.7mb 72f 72f
7:48 18 21 mph 1009.8mb - -
7:42 18 20 mph 1010mb 73f 72f
7:36 17 28 mph 1010.1mb 73f 73f
7:30 22 25 mph 1010.1mb 73f 74f
7:24 21 33 mph 1010.2mb 73f 72f
7:18 25 30 mph - - -
7:12 23 24 mph 1010.4mb 73f 72f
7:06 20 23 mph 1010.3mb 73f 72f
7:00 21 24 mph 1010.3mb 73f 72f
6:54 20 22 mph 1010.2mb 72f 72f
6:48 20 21 mph 1010.3mb - -
6:42 20 21 mph 1010.3mb 73f 72f
6:36 18 21 mph 1010.2mb 73f 72f
6:30 18 21 mph 1010.3mb 73f 72f
6:24 20 21 mph 1010.2mb 73f 72f
6:18 16 18 mph - - -
6:12 15 20 mph 1010.3mb 73f 72f
6:06 17 20 mph 1010.2mb 73f 72f
6:00 17 18 mph 1010.1mb 73f 72f
5:54 17 21 mph 1009.9mb 73f 72f
5:48 17 20 mph 1010.1mb - -
5:42 17 20 mph 1010.2mb 73f 72f
5:36 18 20 mph 1010.2mb 73f 72f
5:30 18 22 mph 1010.2mb 73f 72f
5:24 20 22 mph 1010.2mb 73f 72f
5:18 20 22 mph 1010.3mb 73f 72f
5:12 20 22 mph 1010.2mb 73f 72f
5:06 20 23 mph 1010.3mb 73f 72f
5:00 22 24 mph 1010.2mb 73f 73f
4:54 20 24 mph 1010.2mb 73f 73f
4:48 22 25 mph 1010.1mb 73f 73f
4:42 22 25 mph 1010.1mb 73f 73f
4:36 21 24 mph 1010.2mb 73f 73f
4:30 21 23 mph 1010.2mb 73f 73f
4:24 18 23 mph 1010.3mb 73f 73f
4:18 20 22 mph 1010.4mb 73f 73f
4:12 16 18 mph 1010.5mb 73f 72f
4:06 14 16 mph 1010.6mb 73f 72f
4:00 15 17 mph 1010.7mb 73f 72f
3:54 15 18 mph 1010.7mb 73f 72f
3:48 14 15 mph 1010.8mb 73f 71f
3:42 10 15 mph 1010.8mb 73f 71f
3:36 15 21 mph 1010.9mb 73f 72f
3:30 21 22 mph 1011mb 73f 72f
3:24 20 24 mph 1011.1mb 73f 72f
3:18 24 28 mph 1011mb 73f 72f
3:12 25 29 mph 1010.8mb 73f 72f
3:06 24 28 mph 1011.1mb 73f 72f
3:00 22 26 mph 1011.2mb 73f 73f
2:54 22 25 mph 1011.1mb 73f 73f
2:48 18 24 mph 1011.2mb 73f 72f
2:42 22 24 mph 1011.3mb 72f 73f
2:36 22 23 mph 1011.4mb 72f 73f
2:30 20 23 mph 1011.5mb 72f 72f
2:24 20 24 mph 1011.5mb 72f 72f
2:18 20 24 mph 1011.6mb 72f 73f
2:12 22 25 mph 1011.6mb 72f 73f
2:06 23 26 mph 1011.7mb 72f 73f
2:00 23 26 mph 1011.9mb 72f 72f
1:54 26 28 mph 1011.9mb 72f 72f
1:48 25 28 mph 1011.8mb 72f 73f
1:42 24 26 mph 1011.7mb 72f 73f
1:36 22 23 mph 1011.9mb 72f 72f
1:30 21 23 mph 1012mb 72f 72f
1:24 21 24 mph 1012.2mb 72f 72f
1:18 23 26 mph 1012.3mb 72f 73f
1:12 24 29 mph 1012.3mb 72f 73f
1:06 25 29 mph 1012.3mb 72f 73f
1:00 24 29 mph 1012.2mb 72f 73f
12:54 21 26 mph 1012.2mb 72f 73f
12:48 21 26 mph 1012.3mb 72f 73f
12:42 24 29 mph 1012.5mb 72f 73f
12:36 25 28 mph 1012.4mb 72f 73f
12:30 24 30 mph 1012.6mb 72f 73f
12:24 25 30 mph 1012.7mb 72f 73f
12:18 28 31 mph 1012.8mb 71f 73f
12:12 29 31 mph 1012.8mb 71f 73f
12:06 24 29 mph 1012.9mb 71f 73f
12:00 26 30 mph 1013mb 71f 73f
11:54 23 26 mph 1013.1mb 71f 72f
11:48 23 25 mph 1013.2mb 72f 72f
11:42 22 24 mph 1013.2mb 72f 72f
11:36 21 22 mph 1013.3mb 72f 73f
11:30 20 23 mph 1013.3mb 72f 73f
11:24 22 24 mph 1013.2mb 72f 73f
11:18 20 23 mph 1013.2mb 72f 73f
11:12 21 25 mph 1013.1mb 72f 73f
11:06 23 25 mph 1013mb 72f 73f
11:00 23 28 mph 1013.1mb 72f 73f
10:54 23 25 mph 1013.1mb 72f 73f
10:48 23 26 mph 1013mb 72f 72f
10:42 23 26 mph 1013mb 72f 72f
10:36 21 24 mph 1013.1mb 72f 72f
10:30 23 25 mph 1013.2mb 72f 73f
10:24 23 26 mph 1013.2mb 72f 73f
10:18 24 26 mph 1013.2mb 72f 73f
10:12 22 24 mph 1013.2mb 72f 73f
10:06 21 23 mph 1013.2mb 72f 73f
10:00 20 22 mph 1013.2mb 72f 72f
9:54 18 20 mph 1013.3mb 72f 72f
9:48 14 17 mph 1013.4mb 72f 72f
9:42 15 17 mph 1013.3mb 72f 72f
9:36 11 14 mph 1013.4mb 72f 72f
9:30 14 15 mph 1013.4mb 72f 72f
9:24 14 16 mph 1013.4mb 72f 71f
9:18 15 17 mph 1013.5mb 72f 71f
9:12 16 18 mph 1013.4mb 72f 71f
9:06 15 17 mph 1013.4mb 72f 71f
9:00 14 16 mph 1013.5mb 72f 72f
8:54 15 17 mph 1013.6mb 72f 72f
8:48 17 20 mph 1013.7mb 72f 71f
8:42 16 18 mph 1013.7mb 72f 72f
8:36 17 18 mph 1013.8mb 72f 71f
8:30 15 17 mph 1014mb 72f 71f
8:24 15 17 mph 1013.9mb 72f 71f
8:18 15 17 mph 1014.1mb 72f 71f
8:12 15 18 mph 1014.3mb 72f 71f
8:06 15 18 mph 1014.3mb 72f 71f
8:00 15 18 mph 1014.4mb 72f 71f
7:54 15 17 mph 1014.4mb 72f 71f
7:48 14 16 mph 1014.6mb 72f 71f
7:42 14 16 mph 1014.6mb 72f 71f
7:36 13 15 mph 1014.6mb 73f 71f
7:30 14 15 mph 1014.5mb 73f 71f
7:24 11 13 mph 1014.6mb 73f 71f
7:18 11 13 mph 1014.6mb 73f 70f
7:12 11 14 mph 1014.5mb 73f 70f
7:06 14 15 mph 1014.4mb 73f 70f
7:00 14 15 mph 1014.4mb 73f 70f
6:54 14 15 mph 1014.4mb 73f 70f
6:48 15 17 mph 1014.3mb 73f 70f
6:42 15 17 mph 1014.2mb 73f 70f
6:36 16 17 mph 1014.1mb 73f 70f
6:30 14 15 mph 1014.2mb 73f 70f
6:24 13 14 mph 1014.4mb 72f 70f
6:18 13 15 mph 1014.5mb 72f 70f
6:12 13 16 mph 1014.5mb 72f 70f
6:06 14 15 mph 1014.5mb 72f 70f
6:00 13 14 mph 1014.6mb 72f 69f
5:54 11 14 mph 1014.6mb 72f 69f
5:48 13 14 mph 1014.5mb 72f 69f
5:42 14 14 mph 1014.4mb 72f 69f
5:36 11 14 mph 1014.3mb 72f 69f
5:30 11 13 mph 1014.4mb 72f 69f
5:24 11 13 mph 1014.4mb 72f 69f
5:18 10 13 mph 1014.3mb 72f 69f
5:12 11 13 mph 1014.3mb 72f 69f
5:06 11 14 mph 1014.4mb 72f 69f
5:00 11 13 mph 1014.2mb 72f 69f
4:54 10 11 mph 1014.1mb 72f 69f
4:48 9 11 mph 1014.1mb 72f 69f
4:42 11 13 mph 1014.1mb 72f 69f
4:36 11 13 mph 1014.1mb 72f 69f
4:30 11 13 mph 1014.2mb 72f 69f
4:24 11 13 mph 1014.2mb 72f 69f
4:18 11 13 mph 1014.3mb 72f 69f
4:12 10 10 mph 1014.3mb 72f 69f
4:06 9 11 mph 1014.4mb 72f 69f
4:00 10 11 mph 1014.4mb 72f 69f
3:54 9 10 mph 1014.6mb 72f 69f
3:48 8 9 mph 1014.7mb 72f 69f
3:42 8 9 mph 1014.8mb 72f 69f
3:36 7 9 mph 1014.7mb 72f 69f
3:30 6 7 mph 1014.7mb 72f 69f
3:24 7 7 mph 1014.7mb 72f 69f
3:18 7 8 mph 1014.8mb 72f 69f
3:12 7 10 mph 1014.7mb 72f 69f
3:06 8 9 mph 1014.8mb 72f 69f
3:00 5 9 mph 1014.9mb 72f 68f
2:54 2 2 mph 1015mb 72f 68f
2:42 1 2 mph 1015.1mb - -
2:36 2 5 mph 1015.1mb - -
2:30 5 6 mph 1015.2mb 72f 68f
2:24 3 6 mph 1015.3mb 72f 68f
2:18 5 6 mph 1015.3mb 73f 68f
2:12 5 5 mph 1015.3mb 73f 68f
2:06 3 5 mph 1015.3mb 73f 68f
2:00 5 5 mph 1015.4mb 73f 68f
1:54 5 6 mph 1015.4mb 73f 68f
1:48 5 6 mph 1015.4mb 73f 68f
1:42 5 6 mph 1015.4mb 73f -
1:36 5 6 mph 1015.5mb 73f -
1:30 6 8 mph 1015.6mb 73f 68f
1:24 6 7 mph 1015.6mb 73f 68f
1:18 6 7 mph 1015.6mb 73f 68f
1:12 7 7 mph 1015.7mb 73f 68f
1:06 7 8 mph 1015.7mb 73f 68f
1:00 7 9 mph 1015.7mb 73f 68f
12:54 7 8 mph 1015.8mb 73f 67f
12:48 6 8 mph 1015.8mb 73f 68f
12:42 7 8 mph 1015.9mb 73f 68f
12:36 7 9 mph 1016mb 73f 68f
12:30 8 9 mph 1016mb 73f 68f
12:24 7 8 mph 1016.1mb 73f 68f
12:18 7 8 mph 1016.2mb 73f 68f
12:12 5 6 mph 1016.2mb 73f 68f
12:06 6 6 mph 1016.2mb 73f 68f
12:00 5 6 mph 1016.1mb 73f 68f